Time;durP1;ratioP1;P1;durP2;ratioP2;P2;SDS_P1;SDS_P2;PMS_P1;PMS_P2;Temp;Humidity;BMP_temperature;BMP_pressure;BME280_temperature;BME280_humidity;BME280_pressure;Samples;Min_cycle;Max_cycle;Signal;HPM_P1;HPM_P2
2022/06/28 00:00:30;;;;;;;2.20;1.70;;;;;;;35.91;25.04;98229.31;5075517;28;20107;-76
2022/06/28 00:02:56;;;;;;;3.03;1.63;;;;;;;35.88;24.80;98228.28;5076531;28;20028;-76
2022/06/28 00:05:22;;;;;;;1.80;1.70;;;;;;;35.97;24.69;98224.41;5079182;28;20491;-76
2022/06/28 00:07:48;;;;;;;1.75;1.60;;;;;;;36.11;24.27;98225.56;5078344;28;20032;-76
2022/06/28 00:10:15;;;;;;;1.60;1.50;;;;;;;36.01;24.57;98220.03;5096531;28;20039;-76
2022/06/28 00:12:42;;;;;;;3.35;1.80;;;;;;;35.92;24.86;98219.44;5096687;28;20032;-76
2022/06/28 00:17:56;;;;;;;2.60;1.70;;;;;;;35.81;24.62;98214.47;5078064;28;20416;-76
2022/06/28 00:20:23;;;;;;;1.40;1.30;;;;;;;35.90;24.52;98210.59;5076170;28;20118;-76
2022/06/28 00:22:49;;;;;;;2.20;1.88;;;;;;;35.97;24.74;98210.13;5082761;28;20024;-76
2022/06/28 00:25:16;;;;;;;1.83;1.73;;;;;;;35.87;24.35;98212.41;5078103;28;20122;-76
2022/06/28 00:27:42;;;;;;;1.80;1.63;;;;;;;35.81;24.41;98219.41;5094550;28;20036;-76
2022/06/28 00:30:10;;;;;;;2.55;1.83;;;;;;;35.61;24.98;98210.97;5076035;28;20037;-75
2022/06/28 00:32:36;;;;;;;1.92;1.40;;;;;;;35.68;24.93;98219.06;5076084;28;20035;-76
2022/06/28 00:35:04;;;;;;;2.45;1.85;;;;;;;35.79;24.87;98214.19;5076225;28;20036;-75
2022/06/28 00:37:31;;;;;;;4.20;1.50;;;;;;;35.85;24.56;98219.97;5075958;28;20369;-75
2022/06/28 00:39:57;;;;;;;3.00;1.80;;;;;;;35.69;25.02;98223.47;5083574;28;20051;-76
2022/06/28 00:42:23;;;;;;;2.03;1.90;;;;;;;35.39;25.26;98223.00;5096123;28;20031;-76
2022/06/28 00:44:51;;;;;;;1.50;1.40;;;;;;;35.21;25.19;98220.53;5096172;28;20063;-75
2022/06/28 00:47:18;;;;;;;1.83;1.73;;;;;;;35.28;25.68;98220.09;5096454;28;20020;-76
2022/06/28 00:49:45;;;;;;;3.28;2.08;;;;;;;35.37;24.99;98223.53;5096050;28;20115;-76
2022/06/28 00:52:12;;;;;;;1.58;1.48;;;;;;;35.29;25.16;98225.28;5111439;28;20051;-76
2022/06/28 00:54:39;;;;;;;2.17;1.35;;;;;;;35.17;25.13;98222.88;5095898;28;20372;-76
2022/06/28 00:57:06;;;;;;;2.40;1.65;;;;;;;35.23;25.33;98227.31;5085593;28;20037;-76
2022/06/28 00:59:32;;;;;;;1.40;1.30;;;;;;;35.49;25.15;98224.38;5075408;28;20044;-76
2022/06/28 01:01:59;;;;;;;2.20;1.60;;;;;;;35.66;24.83;98219.56;5075443;28;20029;-76
2022/06/28 01:04:25;;;;;;;2.10;1.35;;;;;;;35.63;24.86;98222.69;5075448;28;20398;-76
2022/06/28 01:06:53;;;;;;;1.70;1.40;;;;;;;35.43;25.10;98215.78;5075219;28;20025;-76
2022/06/28 01:09:19;;;;;;;1.63;1.52;;;;;;;35.48;25.17;98210.59;5075332;28;20033;-76
2022/06/28 01:11:46;;;;;;;1.98;1.80;;;;;;;35.56;25.21;98209.66;5074319;28;20024;-76
2022/06/28 01:14:12;;;;;;;1.70;1.52;;;;;;;35.33;24.82;98210.78;5085011;28;20040;-76
2022/06/28 01:16:39;;;;;;;2.70;1.45;;;;;;;35.39;24.89;98209.53;5075832;28;20107;-76
2022/06/28 01:19:06;;;;;;;2.20;2.00;;;;;;;35.37;24.72;98208.47;5075126;28;20036;-76
2022/06/28 01:21:35;;;;;;;1.92;1.80;;;;;;;35.28;25.03;98200.09;5075320;28;20024;-76
2022/06/28 01:24:01;;;;;;;1.60;1.50;;;;;;;35.41;24.79;98206.94;5075182;28;20029;-75
2022/06/28 01:26:29;;;;;;;1.90;1.77;;;;;;;35.39;24.83;98211.59;5075137;28;20078;-76
2022/06/28 01:28:55;;;;;;;1.75;1.60;;;;;;;35.46;24.57;98218.91;5074897;28;20097;-76
2022/06/28 01:31:22;;;;;;;1.83;1.70;;;;;;;35.38;25.22;98218.59;5085409;28;20479;-76
2022/06/28 01:33:50;;;;;;;1.88;1.60;;;;;;;35.35;24.51;98225.31;5094839;28;20028;-76
2022/06/28 01:36:17;;;;;;;1.38;1.27;;;;;;;35.47;24.79;98218.41;5094970;28;20503;-76
2022/06/28 01:38:43;;;;;;;1.63;1.52;;;;;;;35.57;24.63;98227.59;5095308;28;20036;-75
2022/06/28 01:41:32;;;;;;;1.70;1.60;;;;;;;35.61;24.36;98223.19;5095001;28;20085;-75
2022/06/28 01:43:59;;;;;;;1.45;1.35;;;;;;;35.59;24.73;98233.56;5094704;28;20031;-76
2022/06/28 01:46:26;;;;;;;1.88;1.75;;;;;;;35.60;24.31;98230.19;5094982;28;20032;-76
2022/06/28 01:48:54;;;;;;;1.83;1.50;;;;;;;35.58;24.47;98226.28;5078506;28;20033;-75
2022/06/28 01:51:20;;;;;;;1.50;1.40;;;;;;;35.48;24.45;98231.38;5074663;28;20396;-76
2022/06/28 01:53:46;;;;;;;1.77;1.67;;;;;;;35.58;24.10;98232.00;5074382;28;20033;-76
2022/06/28 01:56:12;;;;;;;1.30;1.20;;;;;;;35.34;25.08;98233.09;5074215;28;20477;-76
2022/06/28 01:58:41;;;;;;;1.50;1.40;;;;;;;35.15;24.99;98236.88;5058054;28;20049;-76
2022/06/28 02:01:07;;;;;;;2.17;1.63;;;;;;;35.24;24.89;98243.13;5054551;28;20025;-75
2022/06/28 02:03:33;;;;;;;1.98;1.77;;;;;;;35.36;24.82;98246.88;5066126;28;20040;-75
2022/06/28 02:06:00;;;;;;;1.50;1.40;;;;;;;35.29;24.94;98247.34;5056298;28;20029;-76
2022/06/28 02:08:26;;;;;;;1.50;1.25;;;;;;;35.26;24.71;98260.56;5054409;28;20455;-76
2022/06/28 02:10:52;;;;;;;1.85;1.65;;;;;;;35.27;24.86;98259.28;5054288;28;20036;-75
2022/06/28 02:13:18;;;;;;;1.90;1.50;;;;;;;34.86;25.52;98262.75;5039148;28;20028;-75
2022/06/28 02:15:44;;;;;;;2.35;1.40;;;;;;;34.59;25.74;98259.13;5074098;28;20121;-75
2022/06/28 02:18:10;;;;;;;4.72;2.03;;;;;;;34.63;25.63;98273.97;5071354;28;20032;-75
2022/06/28 02:20:36;;;;;;;1.55;1.45;;;;;;;34.83;25.20;98267.41;5066464;28;20024;-76
2022/06/28 02:23:02;;;;;;;1.90;1.75;;;;;;;34.91;25.46;98270.59;5066420;28;20064;-75
2022/06/28 02:25:29;;;;;;;2.05;1.80;;;;;;;34.84;25.18;98271.84;5073583;28;20042;-75
2022/06/28 02:27:55;;;;;;;1.33;1.23;;;;;;;34.67;25.94;98270.88;5074226;28;20059;-75
2022/06/28 02:30:21;;;;;;;2.33;1.52;;;;;;;34.87;25.27;98284.31;5065120;28;20388;-76
2022/06/28 02:32:47;;;;;;;1.55;1.45;;;;;;;35.01;25.61;98277.72;5053472;28;20029;-75
2022/06/28 02:40:43;;;;;;;1.40;1.30;;;;;;;34.95;25.25;98291.13;5054078;28;20031;-75
2022/06/28 02:43:09;;;;;;;1.65;1.55;;;;;;;35.06;25.15;98289.19;5053677;28;20032;-77
2022/06/28 02:45:35;;;;;;;1.90;1.58;;;;;;;34.82;25.49;98288.69;5065784;28;20033;-77
2022/06/28 02:48:03;;;;;;;1.70;1.58;;;;;;;34.69;25.68;98291.91;5073254;28;20071;-77
2022/06/28 02:50:29;;;;;;;1.50;1.40;;;;;;;34.84;25.67;98296.72;5053633;28;20021;-77
2022/06/28 02:52:55;;;;;;;1.85;1.40;;;;;;;34.53;25.96;98291.72;5053581;28;20106;-77
2022/06/28 02:55:21;;;;;;;1.58;1.48;;;;;;;34.52;25.86;98292.97;5055814;28;20207;-77
2022/06/28 02:57:47;;;;;;;1.63;1.52;;;;;;;34.33;26.23;98286.00;5080729;28;20051;-78
2022/06/28 03:00:17;;;;;;;2.30;1.90;;;;;;;34.03;26.51;98296.75;5090970;28;20082;-77
2022/06/28 03:02:44;;;;;;;1.75;1.65;;;;;;;33.86;26.90;98298.56;5073144;28;20029;-77
2022/06/28 03:05:13;;;;;;;1.60;1.50;;;;;;;34.00;26.99;98284.25;5088785;28;20142;-78
2022/06/28 03:07:40;;;;;;;1.92;1.77;;;;;;;34.26;26.68;98277.88;5073317;28;20068;-77
2022/06/28 03:10:08;;;;;;;1.58;1.48;;;;;;;34.32;25.99;98285.22;5073231;28;20074;-77
2022/06/28 03:12:34;;;;;;;1.30;1.20;;;;;;;34.48;26.01;98289.56;5077432;28;20032;-78
2022/06/28 03:15:00;;;;;;;2.10;1.55;;;;;;;34.62;26.07;98280.94;5093306;28;20027;-77
2022/06/28 03:17:26;;;;;;;1.58;1.48;;;;;;;34.86;25.33;98283.53;5093011;28;20468;-77
2022/06/28 03:19:53;;;;;;;2.42;1.27;;;;;;;34.95;25.45;98289.06;5093542;28;20032;-77
2022/06/28 03:22:19;;;;;;;1.70;1.60;;;;;;;35.00;25.42;98285.47;5093462;28;20020;-77
2022/06/28 03:24:46;;;;;;;2.00;1.70;;;;;;;35.09;25.20;98284.53;5093434;28;20042;-78
2022/06/28 03:27:13;;;;;;;1.70;1.60;;;;;;;35.24;25.12;98288.81;5093141;28;20105;-77
2022/06/28 03:29:40;;;;;;;2.33;1.77;;;;;;;35.41;24.85;98291.81;5092697;28;20146;-77
2022/06/28 03:32:10;;;;;;;1.95;1.55;;;;;;;35.61;24.59;98297.47;5113475;28;20027;-77
2022/06/28 03:34:36;;;;;;;1.60;1.50;;;;;;;35.69;24.72;98286.34;5115297;28;20076;-77
2022/06/28 03:37:02;;;;;;;1.77;1.67;;;;;;;35.59;25.13;98291.50;5117804;28;20067;-77
2022/06/28 03:39:28;;;;;;;2.78;1.55;;;;;;;35.94;25.00;98291.97;5117736;28;20028;-77
2022/06/28 03:41:54;;;;;;;1.60;1.50;;;;;;;36.39;24.32;98293.00;5117808;28;20028;-77
2022/06/28 03:44:20;;;;;;;1.50;1.40;;;;;;;36.58;25.02;98293.34;5086383;28;20028;-78
2022/06/28 03:46:46;;;;;;;4.20;1.25;;;;;;;36.99;24.08;98288.03;5083035;28;20108;-78
2022/06/28 03:49:12;;;;;;;2.10;1.90;;;;;;;36.83;24.34;98289.50;5097283;28;20094;-77
2022/06/28 03:51:38;;;;;;;1.98;1.27;;;;;;;36.23;25.18;98282.25;5097250;28;20040;-78
2022/06/28 03:54:05;;;;;;;2.13;1.75;;;;;;;36.26;25.07;98300.47;5097595;28;20034;-78
2022/06/28 03:56:31;;;;;;;1.95;1.85;;;;;;;36.35;24.90;98297.41;5081599;28;20143;-78
2022/06/28 03:58:57;;;;;;;1.58;1.48;;;;;;;36.98;25.63;98298.69;5076190;28;20102;-77
2022/06/28 04:01:23;;;;;;;1.55;1.45;;;;;;;37.63;24.49;98301.31;5085957;28;20036;-78
2022/06/28 04:03:49;;;;;;;1.98;1.80;;;;;;;37.92;22.96;98297.94;5075285;28;20418;-78
2022/06/28 04:06:15;;;;;;;1.70;1.52;;;;;;;38.02;24.01;98294.25;5096816;28;20039;-78
2022/06/28 04:08:41;;;;;;;2.17;1.67;;;;;;;38.07;23.62;98292.66;5096706;28;20032;-78
2022/06/28 04:11:16;;;;;;;1.98;1.83;;;;;;;38.20;23.69;98300.72;5088771;28;20032;-76
2022/06/28 04:13:53;;;;;;;7.13;2.25;;;;;;;38.52;23.83;98296.19;5076170;28;20051;-76
2022/06/28 04:16:22;;;;;;;1.65;1.50;;;;;;;38.79;23.66;98292.41;5076370;28;20032;-76
2022/06/28 04:18:48;;;;;;;3.25;1.58;;;;;;;38.86;23.64;98294.72;5076203;28;20036;-76
2022/06/28 04:21:17;;;;;;;1.33;1.23;;;;;;;38.70;23.83;98292.69;5086136;28;20052;-76
2022/06/28 04:23:43;;;;;;;1.60;1.50;;;;;;;38.87;23.02;98286.88;5096884;28;20057;-76
2022/06/28 04:26:09;;;;;;;2.63;1.40;;;;;;;39.09;24.13;98281.00;5096704;28;20036;-76
2022/06/28 04:28:36;;;;;;;2.80;1.63;;;;;;;39.12;23.34;98285.66;5096236;28;20114;-76
2022/06/28 04:31:03;;;;;;;3.22;1.20;;;;;;;39.26;23.84;98278.78;5076449;28;20127;-76
2022/06/28 04:33:29;;;;;;;2.22;1.42;;;;;;;39.45;22.98;98278.88;5075949;28;20032;-76
2022/06/28 04:35:56;;;;;;;1.58;1.45;;;;;;;39.55;23.32;98283.78;5076067;28;20127;-76
2022/06/28 04:38:22;;;;;;;3.42;1.45;;;;;;;39.39;23.91;98284.69;5078908;28;20028;-76
2022/06/28 04:40:49;;;;;;;1.83;1.73;;;;;;;39.56;23.71;98288.19;5075849;28;20484;-76
2022/06/28 04:43:15;;;;;;;1.73;1.63;;;;;;;39.48;23.49;98298.72;5075564;28;20032;-76
2022/06/28 04:45:41;;;;;;;1.70;1.60;;;;;;;39.21;24.30;98294.00;5074335;28;20400;-76
2022/06/28 04:48:07;;;;;;;2.60;1.65;;;;;;;39.13;23.45;98295.84;5074803;28;20090;-76
2022/06/28 04:50:33;;;;;;;2.28;1.60;;;;;;;39.00;23.16;98290.69;5075706;28;20028;-76
2022/06/28 04:53:00;;;;;;;2.20;1.50;;;;;;;39.02;22.96;98293.06;5075941;28;20032;-76
2022/06/28 04:55:27;;;;;;;1.90;1.60;;;;;;;38.95;23.68;98291.53;5082782;28;20393;-76
2022/06/28 04:57:53;;;;;;;2.95;1.45;;;;;;;38.64;24.00;98295.59;5081748;28;20051;-76
2022/06/28 05:00:19;;;;;;;1.73;1.35;;;;;;;38.73;23.50;98294.53;5095403;28;20035;-76
2022/06/28 05:02:45;;;;;;;3.60;1.48;;;;;;;38.51;24.83;98294.63;5076593;28;20029;-76
2022/06/28 05:05:11;;;;;;;3.42;1.40;;;;;;;38.34;24.17;98293.91;5086655;28;20131;-76
2022/06/28 05:07:38;;;;;;;1.60;1.50;;;;;;;38.32;23.89;98282.19;5075879;28;20412;-76
2022/06/28 05:10:05;;;;;;;1.58;1.48;;;;;;;38.45;24.54;98276.66;5075468;28;20025;-76
2022/06/28 05:12:31;;;;;;;2.30;1.50;;;;;;;38.45;23.91;98280.31;5087469;28;20024;-76
2022/06/28 05:14:58;;;;;;;2.05;1.75;;;;;;;38.46;24.00;98278.97;5095467;28;20030;-76
2022/06/28 05:17:24;;;;;;;1.50;1.40;;;;;;;38.57;24.71;98284.69;5095408;28;20028;-76
2022/06/28 05:19:51;;;;;;;3.15;1.63;;;;;;;38.77;24.10;98272.06;5095411;28;20077;-76
2022/06/28 05:22:17;;;;;;;1.60;1.50;;;;;;;38.73;23.53;98277.31;5095530;28;20031;-76
2022/06/28 05:24:43;;;;;;;1.95;1.35;;;;;;;38.72;24.09;98281.47;5095477;28;20024;-76
2022/06/28 05:27:09;;;;;;;2.33;1.30;;;;;;;38.76;24.20;98275.47;5095434;28;20357;-76
2022/06/28 05:29:35;;;;;;;2.03;1.50;;;;;;;38.74;25.08;98280.97;5085671;28;20060;-76
2022/06/28 05:32:01;;;;;;;2.30;1.70;;;;;;;38.83;24.97;98269.94;5074745;28;20525;-76
2022/06/28 05:34:27;;;;;;;2.00;1.45;;;;;;;39.05;24.62;98271.88;5074755;28;20048;-76
2022/06/28 05:36:53;;;;;;;2.17;1.30;;;;;;;39.03;24.34;98266.66;5074999;28;20024;-76
2022/06/28 05:39:20;;;;;;;1.88;1.23;;;;;;;38.82;25.47;98256.88;5074764;28;20036;-76
2022/06/28 05:41:46;;;;;;;1.65;1.30;;;;;;;38.80;25.41;98258.72;5074289;28;20028;-76
2022/06/28 05:44:14;;;;;;;1.35;1.25;;;;;;;38.25;25.36;98249.06;5074537;28;20056;-76
2022/06/28 05:46:40;;;;;;;1.55;1.45;;;;;;;37.87;25.52;98249.97;5088233;28;20110;-76
2022/06/28 05:49:07;;;;;;;6.53;1.92;;;;;;;37.53;26.08;98245.59;5094797;28;20502;-76
2022/06/28 05:51:34;;;;;;;1.50;1.40;;;;;;;38.26;24.54;98244.88;5076550;28;20109;-76
2022/06/28 05:54:01;;;;;;;1.30;1.20;;;;;;;38.65;24.92;98241.84;5094619;28;20522;-76
2022/06/28 05:56:27;;;;;;;1.50;1.40;;;;;;;38.50;24.38;98247.16;5089786;28;20043;-76
2022/06/28 05:58:54;;;;;;;1.58;1.48;;;;;;;38.53;24.72;98246.09;5094667;28;20048;-76
2022/06/28 06:01:22;;;;;;;1.45;1.20;;;;;;;38.82;24.97;98244.63;5065293;28;20038;-76
2022/06/28 06:03:48;;;;;;;1.65;1.30;;;;;;;39.36;24.05;98245.53;5091503;28;20073;-76
2022/06/28 06:06:15;;;;;;;2.20;1.55;;;;;;;39.60;23.51;98245.59;5094225;28;20040;-76
2022/06/28 06:08:41;;;;;;;1.77;1.67;;;;;;;39.67;23.86;98247.88;5094461;28;20039;-76
2022/06/28 06:11:07;;;;;;;1.77;1.55;;;;;;;39.98;23.36;98241.50;5077289;28;20032;-76
2022/06/28 06:13:34;;;;;;;1.80;1.50;;;;;;;39.97;24.22;98242.06;5055986;28;20029;-76
2022/06/28 06:16:00;;;;;;;1.58;1.48;;;;;;;39.61;23.67;98240.63;5074012;28;20067;-76
2022/06/28 06:18:26;;;;;;;1.65;1.55;;;;;;;39.98;23.90;98238.63;5073982;28;20100;-76
2022/06/28 06:20:52;;;;;;;1.60;1.50;;;;;;;40.41;23.48;98246.50;5089226;28;20036;-77
2022/06/28 06:23:18;;;;;;;1.35;1.30;;;;;;;40.65;22.26;98247.25;5094122;28;20499;-77
2022/06/28 06:25:44;;;;;;;1.40;1.30;;;;;;;40.91;21.37;98248.72;5093753;28;20085;-77
2022/06/28 06:28:11;;;;;;;1.67;1.58;;;;;;;41.11;22.80;98251.81;5089912;28;20068;-76
2022/06/28 06:30:37;;;;;;;1.45;1.35;;;;;;;41.41;22.14;98254.47;5084372;28;20036;-76
2022/06/28 06:33:03;;;;;;;2.72;1.45;;;;;;;41.46;21.47;98255.69;5094116;28;20032;-76
2022/06/28 06:35:29;;;;;;;1.58;1.48;;;;;;;41.43;21.46;98256.81;5093814;28;20419;-76
2022/06/28 06:38:04;;;;;;;2.35;1.83;;;;;;;41.15;22.17;98258.03;5077347;28;20150;-77
2022/06/28 06:40:31;;;;;;;3.10;1.33;;;;;;;40.93;22.45;98260.47;5089077;28;20035;-76
2022/06/28 06:42:58;;;;;;;2.60;1.63;;;;;;;40.43;23.29;98256.19;5094049;28;20028;-76
2022/06/28 06:45:24;;;;;;;2.55;1.60;;;;;;;40.19;23.12;98264.06;5093665;28;20028;-76
2022/06/28 06:47:50;;;;;;;1.83;1.73;;;;;;;40.93;23.13;98261.25;5093935;28;20024;-76
2022/06/28 06:50:16;;;;;;;1.77;1.65;;;;;;;40.70;23.52;98262.88;5093677;28;20064;-76
2022/06/28 06:52:43;;;;;;;2.75;1.80;;;;;;;41.11;22.94;98265.44;5093230;28;20032;-76
2022/06/28 06:55:09;;;;;;;3.67;1.58;;;;;;;41.10;23.26;98266.78;5075391;28;20028;-76
2022/06/28 06:57:36;;;;;;;1.60;1.50;;;;;;;40.40;23.86;98268.75;5072941;28;20110;-77
2022/06/28 07:00:04;;;;;;;2.42;2.00;;;;;;;40.50;23.50;98272.06;5073433;28;20553;-76
2022/06/28 07:02:30;;;;;;;2.25;2.05;;;;;;;40.55;23.10;98274.88;5092077;28;20036;-76
2022/06/28 07:04:56;;;;;;;2.13;1.92;;;;;;;40.99;22.55;98276.34;5093656;28;20017;-76
2022/06/28 07:07:23;;;;;;;2.72;1.50;;;;;;;41.30;22.13;98266.19;5093164;28;20040;-76
2022/06/28 07:09:50;;;;;;;2.03;1.60;;;;;;;41.85;20.74;98265.22;5090966;28;20559;-76
2022/06/28 07:12:16;;;;;;;1.63;1.52;;;;;;;41.85;21.01;98264.44;5073649;28;20046;-76
2022/06/28 07:14:42;;;;;;;2.03;1.83;;;;;;;41.96;21.28;98259.25;5073375;28;20358;-76
2022/06/28 07:17:08;;;;;;;1.40;1.30;;;;;;;42.16;21.85;98268.59;5071621;28;20032;-76
2022/06/28 07:19:34;;;;;;;1.50;1.40;;;;;;;42.29;20.62;98257.81;5072651;28;20048;-76
2022/06/28 07:22:00;;;;;;;1.40;1.30;;;;;;;42.52;21.21;98258.94;5072959;28;20100;-76
2022/06/28 07:24:26;;;;;;;2.03;1.30;;;;;;;42.06;21.31;98265.34;5072728;28;20032;-76
2022/06/28 07:26:52;;;;;;;2.45;1.20;;;;;;;40.85;22.34;98268.16;5073474;28;20040;-76
2022/06/28 07:29:18;;;;;;;2.13;1.42;;;;;;;40.43;22.58;98272.63;5091353;28;20020;-76
2022/06/28 07:31:44;;;;;;;1.85;1.40;;;;;;;41.07;21.16;98262.88;5093613;28;20068;-77
2022/06/28 07:34:10;;;;;;;1.58;1.48;;;;;;;41.70;21.38;98249.78;5093213;28;20091;-77
2022/06/28 07:36:36;;;;;;;4.30;1.40;;;;;;;41.70;20.83;98241.91;5092671;28;20073;-77
2022/06/28 07:39:03;;;;;;;1.33;1.23;;;;;;;41.94;21.07;98240.94;5078495;28;20033;-76
2022/06/28 07:41:30;;;;;;;1.30;1.20;;;;;;;41.81;21.93;98241.72;5072882;28;20024;-77
2022/06/28 07:43:56;;;;;;;2.50;1.33;;;;;;;41.47;20.39;98240.75;5073588;28;20391;-77
2022/06/28 07:46:23;;;;;;;1.05;1.02;;;;;;;42.21;20.44;98242.50;5091933;28;20031;-77
2022/06/28 07:48:50;;;;;;;2.90;1.17;;;;;;;42.00;20.44;98244.47;5092951;28;20028;-77
2022/06/28 07:54:19;;;;;;;1.23;1.00;;;;;;;42.96;18.44;98239.81;5058918;28;20037;-77
2022/06/28 07:56:45;;;;;;;1.08;1.08;;;;;;;43.23;19.24;98237.56;5088186;28;20057;-77
2022/06/28 07:59:11;;;;;;;2.10;0.85;;;;;;;41.89;20.04;98239.72;5092792;28;20040;-76
2022/06/28 08:01:38;;;;;;;1.17;1.08;;;;;;;41.76;20.38;98241.78;5087209;28;20036;-76
2022/06/28 08:04:04;;;;;;;0.93;0.93;;;;;;;42.41;19.57;98238.91;5075989;28;20029;-77
2022/06/28 08:06:30;;;;;;;1.83;1.27;;;;;;;41.93;19.47;98242.25;5081756;28;20039;-77
2022/06/28 08:08:56;;;;;;;5.55;1.70;;;;;;;42.11;19.34;98243.50;5078055;28;20024;-77
2022/06/28 08:11:22;;;;;;;1.33;1.23;;;;;;;40.89;22.16;98260.78;5092881;28;20036;-77
2022/06/28 08:13:50;;;;;;;1.00;1.00;;;;;;;41.32;20.43;98258.56;5074173;28;20112;-77
2022/06/28 08:16:16;;;;;;;2.67;1.20;;;;;;;41.55;19.83;98258.16;5072530;28;20575;-77
2022/06/28 08:18:43;;;;;;;3.30;1.10;;;;;;;41.35;20.67;98256.69;5057373;28;20472;-78
2022/06/28 08:21:09;;;;;;;1.20;1.10;;;;;;;41.82;18.81;98260.59;5074839;28;20033;-78
2022/06/28 08:23:36;;;;;;;1.50;1.40;;;;;;;40.78;20.56;98271.66;5076265;28;20040;-77
2022/06/28 08:26:02;;;;;;;1.08;1.00;;;;;;;40.84;19.74;98269.50;5080018;28;20056;-77
2022/06/28 08:28:28;;;;;;;1.25;1.00;;;;;;;41.71;19.21;98266.53;5078826;28;20048;-77
2022/06/28 08:30:54;;;;;;;2.08;0.90;;;;;;;42.80;18.29;98266.19;5091879;28;20516;-77
2022/06/28 08:33:20;;;;;;;2.38;1.20;;;;;;;42.16;19.69;98257.03;5078120;28;20020;-77
2022/06/28 08:35:46;;;;;;;1.83;0.88;;;;;;;42.65;18.63;98273.34;5089712;28;20032;-77
2022/06/28 08:38:12;;;;;;;0.90;0.90;;;;;;;43.45;17.25;98276.75;5076336;28;20028;-77
2022/06/28 08:40:40;;;;;;;0.85;0.85;;;;;;;44.19;17.87;98270.03;5076152;28;20032;-77
2022/06/28 08:43:07;;;;;;;1.27;0.82;;;;;;;44.21;17.52;98276.03;5075872;28;20028;-77
2022/06/28 08:45:33;;;;;;;0.77;0.70;;;;;;;42.98;18.06;98277.59;5074734;28;20531;-77
2022/06/28 08:48:07;;;;;;;0.90;0.90;;;;;;;42.67;18.69;98282.22;5083956;28;20487;-77
2022/06/28 08:50:37;;;;;;;0.70;0.70;;;;;;;42.55;18.08;98274.34;5095973;28;20372;-77
2022/06/28 08:53:08;;;;;;;0.65;0.65;;;;;;;42.44;17.94;98269.56;5093017;28;20024;-77
2022/06/28 08:55:36;;;;;;;1.15;0.80;;;;;;;42.00;18.92;98262.59;5094215;28;20024;-77
2022/06/28 08:58:05;;;;;;;0.50;0.50;;;;;;;42.06;19.47;98265.34;5086519;28;20041;-77
2022/06/28 09:00:32;;;;;;;0.90;0.90;;;;;;;41.71;18.59;98257.13;5075746;28;20059;-77
2022/06/28 09:02:58;;;;;;;0.80;0.80;;;;;;;41.96;17.96;98253.50;5075541;28;20491;-77
2022/06/28 09:05:27;;;;;;;0.93;0.93;;;;;;;42.01;18.91;98240.28;5076250;28;20033;-78
2022/06/28 09:07:57;;;;;;;1.40;0.90;;;;;;;41.99;19.13;98246.59;5083737;28;20028;-77
2022/06/28 09:10:24;;;;;;;1.52;1.25;;;;;;;40.20;20.35;98249.13;5084037;28;20090;-78
2022/06/28 09:12:55;;;;;;;1.25;1.10;;;;;;;39.60;20.83;98248.47;5075225;28;20408;-77
2022/06/28 09:15:25;;;;;;;2.60;1.35;;;;;;;39.73;21.46;98245.72;5057267;28;20362;-77
2022/06/28 09:17:56;;;;;;;1.95;1.42;;;;;;;40.07;21.26;98248.25;5057142;28;20480;-78
2022/06/28 09:20:37;;;;;;;1.33;1.23;;;;;;;40.08;21.11;98249.78;5075040;28;20032;-77
2022/06/28 09:23:04;;;;;;;1.55;1.38;;;;;;;39.45;21.22;98255.91;5075507;28;20439;-77
2022/06/28 09:25:31;;;;;;;3.75;1.50;;;;;;;40.72;20.05;98254.47;5074980;28;20055;-77
2022/06/28 09:28:02;;;;;;;2.03;1.60;;;;;;;40.15;21.06;98252.84;5088500;28;20549;-78
2022/06/28 09:30:30;;;;;;;3.80;1.30;;;;;;;39.93;20.93;98248.09;5075083;28;20077;-78
2022/06/28 09:32:57;;;;;;;1.52;1.20;;;;;;;40.03;20.27;98251.41;5073858;28;20025;-78
2022/06/28 09:35:24;;;;;;;1.45;1.33;;;;;;;39.88;20.36;98263.34;5090652;28;20021;-77
2022/06/28 09:37:51;;;;;;;1.63;1.10;;;;;;;40.12;20.37;98264.69;5075289;28;20029;-77
2022/06/28 09:40:26;;;;;;;5.82;1.20;;;;;;;39.94;20.48;98254.63;5074968;28;20031;-77
2022/06/28 09:43:12;;;;;;;1.70;1.60;;;;;;;39.56;20.67;98256.56;5075233;28;20107;-77
2022/06/28 09:45:43;;;;;;;3.50;1.40;;;;;;;39.41;21.26;98259.06;5074750;28;20067;-77
2022/06/28 09:48:16;;;;;;;1.88;1.33;;;;;;;41.24;19.21;98260.47;5074650;28;20035;-77
2022/06/28 09:50:42;;;;;;;3.17;1.20;;;;;;;41.51;19.17;98267.16;5074661;28;20055;-77
2022/06/28 09:53:09;;;;;;;1.80;1.45;;;;;;;41.17;19.05;98278.41;5074512;28;20028;-78
2022/06/28 09:55:35;;;;;;;4.20;1.83;;;;;;;41.03;20.02;98304.84;5074597;28;20162;-77
2022/06/28 09:58:02;;;;;;;3.20;2.13;;;;;;;39.13;23.74;98336.84;5074137;28;20497;-77
2022/06/28 10:00:30;;;;;;;2.53;2.33;;;;;;;38.49;25.18;98334.53;5076776;28;20024;-77
2022/06/28 10:02:57;;;;;;;4.95;2.72;;;;;;;37.07;27.49;98349.97;5074015;28;20040;-77
2022/06/28 10:05:25;;;;;;;2.58;1.95;;;;;;;36.66;27.17;98338.13;5074429;28;20032;-77
2022/06/28 10:07:51;;;;;;;4.70;2.55;;;;;;;36.86;27.26;98342.06;5093148;28;20028;-77
2022/06/28 10:10:19;;;;;;;2.40;2.10;;;;;;;36.02;28.52;98335.19;5094712;28;20073;-77
2022/06/28 10:15:38;;;;;;;8.65;1.98;;;;;;;34.48;31.07;98375.91;5079463;28;20467;-77
2022/06/28 10:18:08;;;;;;;3.15;1.60;;;;;;;33.32;32.16;98368.34;5085454;28;20020;-77
2022/06/28 10:20:36;;;;;;;;;;;;;;;33.79;33.17;98376.69;5090178;28;20115;-77
2022/06/28 10:23:42;;;;;;;2.67;1.88;;;;;;;33.04;34.26;98367.84;5074048;28;19969;-77
2022/06/28 10:26:08;;;;;;;1.70;1.60;;;;;;;33.37;34.32;98387.59;5072644;28;20052;-77
2022/06/28 10:28:55;;;;;;;2.55;1.75;;;;;;;33.66;33.64;98384.75;5073687;28;20032;-77
2022/06/28 10:31:24;;;;;;;2.38;1.67;;;;;;;34.51;32.37;98400.56;5073589;28;20481;-78
2022/06/28 10:33:51;;;;;;;2.03;1.67;;;;;;;34.36;31.45;98365.63;5074170;28;20154;-77
2022/06/28 10:36:18;;;;;;;3.58;1.63;;;;;;;33.74;32.23;98339.56;5092007;28;20031;-78
2022/06/28 10:39:09;;;;;;;3.70;1.40;;;;;;;33.95;31.94;98339.13;5094144;28;20029;-77
2022/06/28 10:41:47;;;;;;;2.00;1.30;;;;;;;34.51;31.36;98340.69;5094312;28;20219;-77
2022/06/28 10:44:20;;;;;;;1.52;0.80;;;;;;;35.34;30.48;98393.03;5093879;28;20024;-77
2022/06/28 10:47:11;;;;;;;1.42;1.00;;;;;;;34.85;30.98;98406.72;5075592;28;20044;-77
2022/06/28 10:49:46;;;;;;;;;;;;;;;33.91;32.25;98424.00;5089036;28;20069;-77
2022/06/28 10:52:16;;;;;;;1.75;0.80;;;;;;;33.66;32.49;98438.06;5083302;28;19916;-77
2022/06/28 10:54:57;;;;;;;1.80;1.00;;;;;;;33.69;32.75;98454.19;5073684;28;20039;-78
2022/06/28 10:57:26;;;;;;;3.40;0.50;;;;;;;34.36;31.94;98476.03;5073462;28;20051;-77
2022/06/28 10:59:54;;;;;;;1.00;0.80;;;;;;;35.19;30.19;98486.59;5073190;28;20392;-77
2022/06/28 11:02:21;;;;;;;0.95;0.93;;;;;;;34.85;30.74;98486.59;5073248;28;20476;-77
2022/06/28 11:05:08;;;;;;;0.43;0.43;;;;;;;35.30;30.36;98485.91;5075331;28;20029;-77
2022/06/28 11:07:35;;;;;;;0.50;0.50;;;;;;;35.50;29.61;98485.91;5084185;28;20036;-77
2022/06/28 11:10:03;;;;;;;0.52;0.52;;;;;;;35.81;29.56;98494.53;5075605;28;20107;-77
2022/06/28 11:12:31;;;;;;;0.50;0.50;;;;;;;35.98;29.29;98492.66;5073667;28;20033;-77
2022/06/28 11:15:04;;;;;;;0.50;0.50;;;;;;;35.89;29.32;98492.00;5073159;28;20082;-77
2022/06/28 11:17:34;;;;;;;0.60;0.60;;;;;;;35.47;29.64;98477.53;5073201;28;20424;-77
2022/06/28 11:20:12;;;;;;;2.65;1.13;;;;;;;34.49;31.39;98453.69;5073294;28;20024;-77
2022/06/28 11:22:42;;;;;;;1.23;1.10;;;;;;;34.03;32.41;98439.25;5073491;28;20532;-77
2022/06/28 11:25:13;;;;;;;1.83;1.65;;;;;;;33.86;32.08;98423.94;5073634;28;20058;-77
2022/06/28 11:27:55;;;;;;;4.40;2.70;;;;;;;33.57;33.70;98427.56;5073077;28;20041;-77
2022/06/28 11:30:23;;;;;;;3.35;1.80;;;;;;;34.05;33.25;98434.63;5072708;28;20044;-77
2022/06/28 11:32:50;;;;;;;3.05;2.17;;;;;;;34.27;32.46;98428.47;5055091;28;20127;-77
2022/06/28 11:35:28;;;;;;;2.47;1.95;;;;;;;34.37;32.54;98429.13;5073140;28;20036;-77
2022/06/28 11:38:06;;;;;;;3.00;2.33;;;;;;;34.45;33.34;98436.00;5072871;28;20093;-77
2022/06/28 11:40:51;;;;;;;6.80;3.13;;;;;;;33.94;34.01;98442.16;5055119;28;20415;-77
2022/06/28 11:43:20;;;;;;;2.80;2.40;;;;;;;34.49;33.15;98447.97;5083199;28;20032;-77
2022/06/28 11:45:49;;;;;;;3.22;2.58;;;;;;;34.33;32.81;98451.38;5093051;28;20031;-77
2022/06/28 11:48:22;;;;;;;3.90;3.05;;;;;;;34.00;33.86;98465.88;5074989;28;20040;-77
2022/06/28 11:50:52;;;;;;;3.90;2.92;;;;;;;33.88;34.03;98469.81;5092998;28;20149;-77